sensor_id;sensor_type;location;lat;lon;timestamp;pressure;altitude;pressure_sealevel;temperature;humidity
62708;BME280;48769;51.624;5.886;2023-12-04T00:01:46;101148.66;;;0.65;100.00
62708;BME280;48769;51.624;5.886;2023-12-04T00:04:12;101153.00;;;0.64;100.00
62708;BME280;48769;51.624;5.886;2023-12-04T00:06:38;101144.38;;;0.59;100.00
62708;BME280;48769;51.624;5.886;2023-12-04T00:09:03;101146.97;;;0.61;100.00
62708;BME280;48769;51.624;5.886;2023-12-04T00:11:31;101140.91;;;0.62;100.00
62708;BME280;48769;51.624;5.886;2023-12-04T00:13:58;101130.53;;;0.57;100.00
62708;BME280;48769;51.624;5.886;2023-12-04T00:16:23;101135.72;;;0.62;100.00
62708;BME280;48769;51.624;5.886;2023-12-04T00:18:48;101133.16;;;0.53;100.00
62708;BME280;48769;51.624;5.886;2023-12-04T00:21:14;101123.63;;;0.56;100.00
62708;BME280;48769;51.624;5.886;2023-12-04T00:23:39;101116.66;;;0.55;100.00
62708;BME280;48769;51.624;5.886;2023-12-04T00:26:05;101117.53;;;0.62;100.00
62708;BME280;48769;51.624;5.886;2023-12-04T00:28:30;101109.72;;;0.62;100.00
62708;BME280;48769;51.624;5.886;2023-12-04T00:30:56;101113.16;;;0.64;100.00
62708;BME280;48769;51.624;5.886;2023-12-04T00:33:21;101114.00;;;0.67;100.00
62708;BME280;48769;51.624;5.886;2023-12-04T00:35:46;101109.66;;;0.69;100.00
62708;BME280;48769;51.624;5.886;2023-12-04T00:38:12;101108.75;;;0.74;100.00
62708;BME280;48769;51.624;5.886;2023-12-04T00:40:37;101110.53;;;0.70;100.00
62708;BME280;48769;51.624;5.886;2023-12-04T00:43:02;101106.19;;;0.70;100.00
62708;BME280;48769;51.624;5.886;2023-12-04T00:45:28;101107.94;;;0.72;100.00
62708;BME280;48769;51.624;5.886;2023-12-04T00:47:53;101107.94;;;0.72;100.00
62708;BME280;48769;51.624;5.886;2023-12-04T00:50:18;101104.41;;;0.76;100.00
62708;BME280;48769;51.624;5.886;2023-12-04T00:52:44;101100.06;;;0.76;100.00
62708;BME280;48769;51.624;5.886;2023-12-04T00:55:09;101107.84;;;0.78;100.00
62708;BME280;48769;51.624;5.886;2023-12-04T00:57:37;101107.00;;;0.79;100.00
62708;BME280;48769;51.624;5.886;2023-12-04T01:00:03;101098.28;;;0.83;100.00
62708;BME280;48769;51.624;5.886;2023-12-04T01:02:28;101096.50;;;0.89;100.00
62708;BME280;48769;51.624;5.886;2023-12-04T01:04:54;101095.66;;;0.89;100.00
62708;BME280;48769;51.624;5.886;2023-12-04T01:07:19;101095.69;;;0.86;100.00
62708;BME280;48769;51.624;5.886;2023-12-04T01:09:44;101085.22;;;0.92;100.00
62708;BME280;48769;51.624;5.886;2023-12-04T01:12:10;101080.06;;;0.84;100.00
62708;BME280;48769;51.624;5.886;2023-12-04T01:14:35;101083.53;;;0.88;100.00
62708;BME280;48769;51.624;5.886;2023-12-04T01:17:03;101074.78;;;0.98;100.00
62708;BME280;48769;51.624;5.886;2023-12-04T01:19:29;101074.78;;;0.98;100.00
62708;BME280;48769;51.624;5.886;2023-12-04T01:21:54;101073.94;;;0.95;100.00
62708;BME280;48769;51.624;5.886;2023-12-04T01:24:19;101062.66;;;0.94;100.00
62708;BME280;48769;51.624;5.886;2023-12-04T01:26:44;101059.25;;;0.89;100.00
62708;BME280;48769;51.624;5.886;2023-12-04T01:29:10;101060.97;;;0.87;100.00
62708;BME280;48769;51.624;5.886;2023-12-04T01:31:35;101064.44;;;0.89;100.00
62708;BME280;48769;51.624;5.886;2023-12-04T01:34:01;101054.88;;;0.91;100.00
62708;BME280;48769;51.624;5.886;2023-12-04T01:36:27;101049.75;;;0.83;100.00
62708;BME280;48769;51.624;5.886;2023-12-04T01:38:52;101054.09;;;0.83;100.00
62708;BME280;48769;51.624;5.886;2023-12-04T01:41:17;101044.50;;;0.86;100.00
62708;BME280;48769;51.624;5.886;2023-12-04T01:43:43;101055.75;;;0.90;100.00
62708;BME280;48769;51.624;5.886;2023-12-04T01:46:09;101053.19;;;0.87;100.00
62708;BME280;48769;51.624;5.886;2023-12-04T01:48:35;101051.44;;;0.87;100.00
62708;BME280;48769;51.624;5.886;2023-12-04T01:51:05;101050.56;;;0.87;100.00
62708;BME280;48769;51.624;5.886;2023-12-04T01:53:31;101043.69;;;0.80;100.00
62708;BME280;48769;51.624;5.886;2023-12-04T01:55:57;101050.63;;;0.81;100.00
62708;BME280;48769;51.624;5.886;2023-12-04T01:58:22;101042.00;;;0.79;100.00
62708;BME280;48769;51.624;5.886;2023-12-04T02:00:48;101040.22;;;0.82;100.00
62708;BME280;48769;51.624;5.886;2023-12-04T02:03:13;101032.41;;;0.81;100.00
62708;BME280;48769;51.624;5.886;2023-12-04T02:05:39;101026.38;;;0.82;100.00
62708;BME280;48769;51.624;5.886;2023-12-04T02:08:05;101032.41;;;0.84;100.00
62708;BME280;48769;51.624;5.886;2023-12-04T02:10:30;101028.06;;;0.83;100.00
62708;BME280;48769;51.624;5.886;2023-12-04T02:12:55;101019.47;;;0.76;100.00
62708;BME280;48769;51.624;5.886;2023-12-04T02:15:21;101015.94;;;0.83;100.00
62708;BME280;48769;51.624;5.886;2023-12-04T02:17:47;101013.38;;;0.82;100.00
62708;BME280;48769;51.624;5.886;2023-12-04T02:20:13;101020.31;;;0.80;100.00
62708;BME280;48769;51.624;5.886;2023-12-04T02:22:39;101011.63;;;0.82;100.00
62708;BME280;48769;51.624;5.886;2023-12-04T02:25:05;101012.47;;;0.83;100.00
62708;BME280;48769;51.624;5.886;2023-12-04T02:27:38;101007.25;;;0.86;100.00
62708;BME280;48769;51.624;5.886;2023-12-04T02:30:06;101007.25;;;0.86;100.00
62708;BME280;48769;51.624;5.886;2023-12-04T02:32:36;101000.31;;;0.88;100.00
62708;BME280;48769;51.624;5.886;2023-12-04T02:35:04;100996.84;;;0.84;100.00
62708;BME280;48769;51.624;5.886;2023-12-04T02:37:30;100993.38;;;0.85;100.00
62708;BME280;48769;51.624;5.886;2023-12-04T02:39:57;100995.13;;;0.83;100.00
62708;BME280;48769;51.624;5.886;2023-12-04T02:42:23;100995.09;;;0.88;100.00
62708;BME280;48769;51.624;5.886;2023-12-04T02:44:50;100988.19;;;0.84;100.00
62708;BME280;48769;51.624;5.886;2023-12-04T02:47:16;100985.59;;;0.84;100.00
62708;BME280;48769;51.624;5.886;2023-12-04T02:49:41;100980.41;;;0.81;100.00
62708;BME280;48769;51.624;5.886;2023-12-04T02:52:06;100976.09;;;0.80;100.00
62708;BME280;48769;51.624;5.886;2023-12-04T02:54:32;100973.47;;;0.83;100.00
62708;BME280;48769;51.624;5.886;2023-12-04T02:56:57;100972.63;;;0.78;100.00
62708;BME280;48769;51.624;5.886;2023-12-04T02:59:22;100963.97;;;0.79;100.00
62708;BME280;48769;51.624;5.886;2023-12-04T03:01:48;100967.41;;;0.82;100.00
62708;BME280;48769;51.624;5.886;2023-12-04T03:04:13;100962.22;;;0.82;100.00
62708;BME280;48769;51.624;5.886;2023-12-04T03:06:38;100962.25;;;0.75;100.00
62708;BME280;48769;51.624;5.886;2023-12-04T03:09:04;100955.34;;;0.74;100.00
62708;BME280;48769;51.624;5.886;2023-12-04T03:11:30;100952.75;;;0.74;100.00
62708;BME280;48769;51.624;5.886;2023-12-04T03:13:55;100959.66;;;0.76;100.00
62708;BME280;48769;51.624;5.886;2023-12-04T03:16:20;100950.97;;;0.79;100.00
62708;BME280;48769;51.624;5.886;2023-12-04T03:18:46;100949.22;;;0.78;100.00
62708;BME280;48769;51.624;5.886;2023-12-04T03:21:12;100953.53;;;0.80;100.00
62708;BME280;48769;51.624;5.886;2023-12-04T03:23:37;100934.56;;;0.70;100.00
62708;BME280;48769;51.624;5.886;2023-12-04T03:26:02;100927.59;;;0.76;100.00
62708;BME280;48769;51.624;5.886;2023-12-04T03:28:28;100931.06;;;0.76;100.00
62708;BME280;48769;51.624;5.886;2023-12-04T03:30:54;100927.56;;;0.79;100.00
62708;BME280;48769;51.624;5.886;2023-12-04T03:33:19;100928.53;;;0.68;100.00
62708;BME280;48769;51.624;5.886;2023-12-04T03:35:45;100921.53;;;0.74;100.00
62708;BME280;48769;51.624;5.886;2023-12-04T03:38:10;100915.50;;;0.70;100.00
62708;BME280;48769;51.624;5.886;2023-12-04T03:40:35;100910.31;;;0.72;100.00
62708;BME280;48769;51.624;5.886;2023-12-04T03:43:00;100916.41;;;0.67;100.00
62708;BME280;48769;51.624;5.886;2023-12-04T03:45:26;100910.34;;;0.67;100.00
62708;BME280;48769;51.624;5.886;2023-12-04T03:47:51;100912.88;;;0.73;100.00
62708;BME280;48769;51.624;5.886;2023-12-04T03:50:16;100900.03;;;0.59;100.00
62708;BME280;48769;51.624;5.886;2023-12-04T03:52:42;100903.47;;;0.61;100.00
62708;BME280;48769;51.624;5.886;2023-12-04T03:55:08;100898.31;;;0.55;100.00
62708;BME280;48769;51.624;5.886;2023-12-04T03:57:34;100893.03;;;0.64;100.00
62708;BME280;48769;51.624;5.886;2023-12-04T03:59:59;100886.97;;;0.65;100.00
62708;BME280;48769;51.624;5.886;2023-12-04T04:02:25;100891.31;;;0.63;100.00
62708;BME280;48769;51.624;5.886;2023-12-04T04:04:50;100890.44;;;0.64;100.00
62708;BME280;48769;51.624;5.886;2023-12-04T04:07:16;100875.69;;;0.66;100.00
62708;BME280;48769;51.624;5.886;2023-12-04T04:09:41;100868.78;;;0.65;100.00
62708;BME280;48769;51.624;5.886;2023-12-04T04:12:07;100874.00;;;0.62;100.00
62708;BME280;48769;51.624;5.886;2023-12-04T04:14:32;100868.81;;;0.62;100.00
62708;BME280;48769;51.624;5.886;2023-12-04T04:16:57;100861.91;;;0.58;100.00
62708;BME280;48769;51.624;5.886;2023-12-04T04:19:23;100859.25;;;0.61;100.00
62708;BME280;48769;51.624;5.886;2023-12-04T04:21:48;100855.84;;;0.58;100.00
62708;BME280;48769;51.624;5.886;2023-12-04T04:24:13;100854.97;;;0.62;100.00
62708;BME280;48769;51.624;5.886;2023-12-04T04:26:39;100847.16;;;0.62;100.00
62708;BME280;48769;51.624;5.886;2023-12-04T04:29:04;100853.22;;;0.62;100.00
62708;BME280;48769;51.624;5.886;2023-12-04T04:31:30;100855.91;;;0.53;100.00
62708;BME280;48769;51.624;5.886;2023-12-04T04:33:55;100838.69;;;0.43;100.00
62708;BME280;48769;51.624;5.886;2023-12-04T04:36:20;100849.84;;;0.51;100.00
62708;BME280;48769;51.624;5.886;2023-12-04T04:38:45;100840.38;;;0.47;100.00
62708;BME280;48769;51.624;5.886;2023-12-04T04:41:14;100836.81;;;0.56;100.00
62708;BME280;48769;51.624;5.886;2023-12-04T04:43:43;100828.25;;;0.46;100.00
62708;BME280;48769;51.624;5.886;2023-12-04T04:46:08;100836.06;;;0.44;100.00
62708;BME280;48769;51.624;5.886;2023-12-04T04:48:34;100829.09;;;0.45;100.00
62708;BME280;48769;51.624;5.886;2023-12-04T04:50:59;100830.75;;;0.54;100.00
62708;BME280;48769;51.624;5.886;2023-12-04T04:53:24;100828.19;;;0.51;100.00
62708;BME280;48769;51.624;5.886;2023-12-04T04:55:50;100818.66;;;0.51;100.00
62708;BME280;48769;51.624;5.886;2023-12-04T04:58:16;100822.97;;;0.54;100.00
62708;BME280;48769;51.624;5.886;2023-12-04T05:00:41;100824.72;;;0.53;100.00
62708;BME280;48769;51.624;5.886;2023-12-04T05:03:07;100822.97;;;0.54;100.00
62708;BME280;48769;51.624;5.886;2023-12-04T05:05:32;100820.31;;;0.58;100.00
62708;BME280;48769;51.624;5.886;2023-12-04T05:07:57;100814.28;;;0.56;100.00
62708;BME280;48769;51.624;5.886;2023-12-04T05:10:23;100812.56;;;0.54;100.00
62708;BME280;48769;51.624;5.886;2023-12-04T05:12:48;100826.44;;;0.51;100.00
62708;BME280;48769;51.624;5.886;2023-12-04T05:15:13;100812.56;;;0.54;100.00
62708;BME280;48769;51.624;5.886;2023-12-04T05:17:39;100816.88;;;0.56;100.00
62708;BME280;48769;51.624;5.886;2023-12-04T05:20:05;100823.84;;;0.51;100.00
62708;BME280;48769;51.624;5.886;2023-12-04T05:22:31;100810.88;;;0.50;100.00
62708;BME280;48769;51.624;5.886;2023-12-04T05:24:56;100823.78;;;0.57;100.00
62708;BME280;48769;51.624;5.886;2023-12-04T05:27:22;100820.34;;;0.55;100.00
62708;BME280;48769;51.624;5.886;2023-12-04T05:29:47;100812.59;;;0.51;100.00
62708;BME280;48769;51.624;5.886;2023-12-04T05:32:12;100811.69;;;0.56;100.00
62708;BME280;48769;51.624;5.886;2023-12-04T05:34:38;100813.44;;;0.54;100.00
62708;BME280;48769;51.624;5.886;2023-12-04T05:37:03;100816.03;;;0.54;100.00
62708;BME280;48769;51.624;5.886;2023-12-04T05:39:28;100809.94;;;0.55;100.00
62708;BME280;48769;51.624;5.886;2023-12-04T05:41:54;100808.22;;;0.56;100.00
62708;BME280;48769;51.624;5.886;2023-12-04T05:44:19;100797.00;;;0.52;100.00
62708;BME280;48769;51.624;5.886;2023-12-04T05:46:45;100795.22;;;0.56;100.00
62708;BME280;48769;51.624;5.886;2023-12-04T05:49:10;100799.44;;;0.64;100.00
62708;BME280;48769;51.624;5.886;2023-12-04T05:51:35;100778.72;;;0.58;100.00
62708;BME280;48769;51.624;5.886;2023-12-04T05:54:00;100784.69;;;0.65;100.00
62708;BME280;48769;51.624;5.886;2023-12-04T05:56:26;100774.31;;;0.66;100.00
62708;BME280;48769;51.624;5.886;2023-12-04T05:58:51;100769.91;;;0.72;100.00
62708;BME280;48769;51.624;5.886;2023-12-04T06:01:16;100766.50;;;0.66;100.00
62708;BME280;48769;51.624;5.886;2023-12-04T06:03:42;100761.31;;;0.66;100.00
62708;BME280;48769;51.624;5.886;2023-12-04T06:06:07;100757.78;;;0.70;100.00
62708;BME280;48769;51.624;5.886;2023-12-04T06:08:32;100766.41;;;0.76;100.00
62708;BME280;48769;51.624;5.886;2023-12-04T06:10:58;100769.81;;;0.78;100.00
62708;BME280;48769;51.624;5.886;2023-12-04T06:13:23;100759.41;;;0.78;100.00
62708;BME280;48769;51.624;5.886;2023-12-04T06:15:48;100769.00;;;0.74;100.00
62708;BME280;48769;51.624;5.886;2023-12-04T06:18:14;100761.25;;;0.69;100.00
62708;BME280;48769;51.624;5.886;2023-12-04T06:20:40;100757.75;;;0.74;100.00
62708;BME280;48769;51.624;5.886;2023-12-04T06:23:05;100757.84;;;0.64;100.00
62708;BME280;48769;51.624;5.886;2023-12-04T06:25:31;100743.91;;;0.72;100.00
62708;BME280;48769;51.624;5.886;2023-12-04T06:27:56;100742.97;;;0.77;100.00
62708;BME280;48769;51.624;5.886;2023-12-04T06:30:22;100735.19;;;0.76;100.00
62708;BME280;48769;51.624;5.886;2023-12-04T06:32:50;100731.66;;;0.80;100.00
62708;BME280;48769;51.624;5.886;2023-12-04T06:35:16;100720.53;;;0.70;100.00
62708;BME280;48769;51.624;5.886;2023-12-04T06:37:43;100718.69;;;0.77;100.00
62708;BME280;48769;51.624;5.886;2023-12-04T06:40:08;100714.41;;;0.76;100.00
62708;BME280;48769;51.624;5.886;2023-12-04T06:42:36;100716.94;;;0.79;100.00
62708;BME280;48769;51.624;5.886;2023-12-04T06:45:02;100703.22;;;0.67;100.00
62708;BME280;48769;51.624;5.886;2023-12-04T06:47:31;100710.94;;;0.74;100.00
62708;BME280;48769;51.624;5.886;2023-12-04T06:49:56;100705.75;;;0.75;100.00
62708;BME280;48769;51.624;5.886;2023-12-04T06:52:22;100697.81;;;0.81;100.00
62708;BME280;48769;51.624;5.886;2023-12-04T06:54:47;100694.44;;;0.76;100.00
62708;BME280;48769;51.624;5.886;2023-12-04T06:57:13;100688.34;;;0.79;100.00
62708;BME280;48769;51.624;5.886;2023-12-04T06:59:43;100696.94;;;0.85;100.00
62708;BME280;48769;51.624;5.886;2023-12-04T07:02:08;100687.50;;;0.78;100.00
62708;BME280;48769;51.624;5.886;2023-12-04T07:04:34;100681.38;;;0.81;100.00
62708;BME280;48769;51.624;5.886;2023-12-04T07:06:59;100676.25;;;0.75;100.00
62708;BME280;48769;51.624;5.886;2023-12-04T07:09:31;100663.38;;;0.67;100.00
62708;BME280;48769;51.624;5.886;2023-12-04T07:11:56;100667.56;;;0.79;100.00
62708;BME280;48769;51.624;5.886;2023-12-04T07:14:21;100662.41;;;0.76;100.00
62708;BME280;48769;51.624;5.886;2023-12-04T07:16:47;100655.38;;;0.81;100.00
62708;BME280;48769;51.624;5.886;2023-12-04T07:19:12;100657.16;;;0.79;100.00
62708;BME280;48769;51.624;5.886;2023-12-04T07:21:39;100652.75;;;0.81;100.00
62708;BME280;48769;51.624;5.886;2023-12-04T07:24:06;100657.91;;;0.84;100.00
62708;BME280;48769;51.624;5.886;2023-12-04T07:26:33;100656.19;;;0.84;100.00
62708;BME280;48769;51.624;5.886;2023-12-04T07:28:58;100656.13;;;0.87;100.00
62708;BME280;48769;51.624;5.886;2023-12-04T07:31:24;100643.44;;;0.67;100.00
62708;BME280;48769;51.624;5.886;2023-12-04T07:33:51;100655.41;;;0.78;100.00
62708;BME280;48769;51.624;5.886;2023-12-04T07:36:16;100648.47;;;0.80;100.00
62708;BME280;48769;51.624;5.886;2023-12-04T07:38:42;100670.13;;;0.80;100.00
62708;BME280;48769;51.624;5.886;2023-12-04T07:41:07;100670.88;;;0.88;100.00
62708;BME280;48769;51.624;5.886;2023-12-04T07:43:32;100671.91;;;0.77;100.00
62708;BME280;48769;51.624;5.886;2023-12-04T07:45:58;100667.50;;;0.80;100.00
62708;BME280;48769;51.624;5.886;2023-12-04T07:48:23;100677.84;;;0.86;100.00
62708;BME280;48769;51.624;5.886;2023-12-04T07:50:48;100676.88;;;0.92;100.00
62708;BME280;48769;51.624;5.886;2023-12-04T07:53:13;100669.97;;;0.89;100.00
62708;BME280;48769;51.624;5.886;2023-12-04T07:55:39;100661.25;;;0.93;100.00
62708;BME280;48769;51.624;5.886;2023-12-04T07:58:04;100660.31;;;0.99;100.00
62708;BME280;48769;51.624;5.886;2023-12-04T08:00:30;100664.59;;;1.02;100.00
62708;BME280;48769;51.624;5.886;2023-12-04T08:02:55;100672.41;;;1.00;100.00
62708;BME280;48769;51.624;5.886;2023-12-04T08:05:21;100662.78;;;1.08;100.00
62708;BME280;48769;51.624;5.886;2023-12-04T08:07:47;100665.28;;;1.14;100.00
62708;BME280;48769;51.624;5.886;2023-12-04T08:10:12;100652.28;;;1.13;100.00
62708;BME280;48769;51.624;5.886;2023-12-04T08:12:38;100653.03;;;1.21;100.00
62708;BME280;48769;51.624;5.886;2023-12-04T08:15:04;100646.88;;;1.25;100.00
62708;BME280;48769;51.624;5.886;2023-12-04T08:17:30;100639.16;;;1.21;100.00
62708;BME280;48769;51.624;5.886;2023-12-04T08:19:55;100640.81;;;1.25;100.00
62708;BME280;48769;51.624;5.886;2023-12-04T08:22:21;100642.53;;;1.26;100.00
62708;BME280;48769;51.624;5.886;2023-12-04T08:24:46;100631.38;;;1.21;100.00
62708;BME280;48769;51.624;5.886;2023-12-04T08:27:11;100639.94;;;1.27;100.00
62708;BME280;48769;51.624;5.886;2023-12-04T08:29:39;100628.59;;;1.30;100.00
62708;BME280;48769;51.624;5.886;2023-12-04T08:32:05;100617.38;;;1.28;100.00
62708;BME280;48769;51.624;5.886;2023-12-04T08:34:31;100622.41;;;1.35;100.00
62708;BME280;48769;51.624;5.886;2023-12-04T08:36:56;100613.03;;;1.27;100.00
62708;BME280;48769;51.624;5.886;2023-12-04T08:39:21;100612.06;;;1.32;100.00
62708;BME280;48769;51.624;5.886;2023-12-04T08:41:47;100620.63;;;1.39;100.00
62708;BME280;48769;51.624;5.886;2023-12-04T08:44:13;100615.41;;;1.39;100.00
62708;BME280;48769;51.624;5.886;2023-12-04T08:46:39;100599.84;;;1.36;100.00
62708;BME280;48769;51.624;5.886;2023-12-04T08:49:05;100606.97;;;1.26;100.00
62708;BME280;48769;51.624;5.886;2023-12-04T08:51:30;100604.19;;;1.37;100.00
62708;BME280;48769;51.624;5.886;2023-12-04T08:53:56;100602.34;;;1.42;100.00
62708;BME280;48769;51.624;5.886;2023-12-04T08:56:21;100593.59;;;1.46;100.00
62708;BME280;48769;51.624;5.886;2023-12-04T08:58:46;100584.06;;;1.45;100.00
62708;BME280;48769;51.624;5.886;2023-12-04T09:01:12;100578.88;;;1.45;100.00
62708;BME280;48769;51.624;5.886;2023-12-04T09:03:37;100581.53;;;1.42;100.00
62708;BME280;48769;51.624;5.886;2023-12-04T09:06:03;100579.03;;;1.37;100.00
62708;BME280;48769;51.624;5.886;2023-12-04T09:08:28;100572.84;;;1.43;100.00
62708;BME280;48769;51.624;5.886;2023-12-04T09:10:54;100572.06;;;1.36;100.00
62708;BME280;48769;51.624;5.886;2023-12-04T09:13:19;100567.72;;;1.40;100.00
62708;BME280;48769;51.624;5.886;2023-12-04T09:15:44;100564.91;;;1.51;100.00
62708;BME280;48769;51.624;5.886;2023-12-04T09:18:10;100576.09;;;1.54;100.00
62708;BME280;48769;51.624;5.886;2023-12-04T09:20:35;100577.81;;;1.57;100.00
62708;BME280;48769;51.624;5.886;2023-12-04T09:23:01;100580.41;;;1.57;100.00
62708;BME280;48769;51.624;5.886;2023-12-04T09:25:26;100571.91;;;1.47;100.00
62708;BME280;48769;51.624;5.886;2023-12-04T09:27:51;100574.44;;;1.50;100.00
62708;BME280;48769;51.624;5.886;2023-12-04T09:30:17;100580.41;;;1.55;100.00
62708;BME280;48769;51.624;5.886;2023-12-04T09:32:43;100582.97;;;1.58;100.00
62708;BME280;48769;51.624;5.886;2023-12-04T09:35:08;100576.84;;;1.61;100.00
62708;BME280;48769;51.624;5.886;2023-12-04T09:37:34;100568.94;;;1.66;100.00
62708;BME280;48769;51.624;5.886;2023-12-04T09:39:59;100575.03;;;1.66;100.00
62708;BME280;48769;51.624;5.886;2023-12-04T09:42:25;100574.09;;;1.69;100.00
62708;BME280;48769;51.624;5.886;2023-12-04T09:44:52;100565.53;;;1.63;100.00
62708;BME280;48769;51.624;5.886;2023-12-04T09:47:18;100569.66;;;1.74;100.00
62708;BME280;48769;51.624;5.886;2023-12-04T09:49:44;100568.69;;;1.78;100.00
62708;BME280;48769;51.624;5.886;2023-12-04T09:52:10;100556.63;;;1.74;100.00
62708;BME280;48769;51.624;5.886;2023-12-04T09:54:35;100550.66;;;1.69;100.00
62708;BME280;48769;51.624;5.886;2023-12-04T09:57:01;100549.84;;;1.67;100.00
62708;BME280;48769;51.624;5.886;2023-12-04T09:59:27;100554.94;;;1.73;100.00
62708;BME280;48769;51.624;5.886;2023-12-04T10:01:55;100548.88;;;1.71;100.00
62708;BME280;48769;51.624;5.886;2023-12-04T10:04:21;100551.25;;;1.83;100.00
62708;BME280;48769;51.624;5.886;2023-12-04T10:06:49;100549.44;;;1.85;100.00
62708;BME280;48769;51.624;5.886;2023-12-04T10:09:16;100543.31;;;1.87;100.00
62708;BME280;48769;51.624;5.886;2023-12-04T10:11:44;100545.78;;;1.95;100.00
62708;BME280;48769;51.624;5.886;2023-12-04T10:14:20;100540.44;;;2.01;100.00
62708;BME280;48769;51.624;5.886;2023-12-04T10:16:47;100544.72;;;2.05;100.00
62708;BME280;48769;51.624;5.886;2023-12-04T10:19:20;100535.03;;;2.10;100.00
62708;BME280;48769;51.624;5.886;2023-12-04T10:21:47;100533.28;;;2.11;100.00
62708;BME280;48769;51.624;5.886;2023-12-04T10:24:15;100530.72;;;2.08;100.00
62708;BME280;48769;51.624;5.886;2023-12-04T10:26:51;100525.44;;;2.13;100.00
62708;BME280;48769;51.624;5.886;2023-12-04T10:29:17;100515.03;;;2.11;100.00
62708;BME280;48769;51.624;5.886;2023-12-04T10:31:42;100515.00;;;2.13;100.00
62708;BME280;48769;51.624;5.886;2023-12-04T10:34:08;100513.06;;;2.21;100.00
62708;BME280;48769;51.624;5.886;2023-12-04T10:36:37;100506.94;;;2.23;100.00
62708;BME280;48769;51.624;5.886;2023-12-04T10:39:03;100497.31;;;2.27;100.00
62708;BME280;48769;51.624;5.886;2023-12-04T10:41:30;100490.53;;;2.20;100.00
62708;BME280;48769;51.624;5.886;2023-12-04T10:43:56;100488.78;;;2.20;100.00
62708;BME280;48769;51.624;5.886;2023-12-04T10:46:24;100486.22;;;2.19;100.00
62708;BME280;48769;51.624;5.886;2023-12-04T10:48:50;100489.56;;;2.24;100.00
62708;BME280;48769;51.624;5.886;2023-12-04T10:51:17;100481.84;;;2.19;100.00
62708;BME280;48769;51.624;5.886;2023-12-04T10:53:42;100471.22;;;2.28;100.00
62708;BME280;48769;51.624;5.886;2023-12-04T10:56:10;100470.22;;;2.34;100.00
62708;BME280;48769;51.624;5.886;2023-12-04T10:58:41;100461.50;;;2.35;100.00
62708;BME280;48769;51.624;5.886;2023-12-04T11:01:08;100458.84;;;2.38;100.00
62708;BME280;48769;51.624;5.886;2023-12-04T11:03:45;100450.22;;;2.34;100.00
62708;BME280;48769;51.624;5.886;2023-12-04T11:06:16;100451.88;;;2.39;100.00
62708;BME280;48769;51.624;5.886;2023-12-04T11:08:41;100449.19;;;2.40;100.00
62708;BME280;48769;51.624;5.886;2023-12-04T11:11:15;100447.44;;;2.42;100.00
62708;BME280;48769;51.624;5.886;2023-12-04T11:13:48;100444.88;;;2.41;100.00
62708;BME280;48769;51.624;5.886;2023-12-04T11:16:15;100435.22;;;2.44;100.00
62708;BME280;48769;51.624;5.886;2023-12-04T11:18:44;100430.00;;;2.44;100.00
62708;BME280;48769;51.624;5.886;2023-12-04T11:21:13;100425.44;;;2.54;100.00
62708;BME280;48769;51.624;5.886;2023-12-04T11:23:39;100420.22;;;2.52;100.00
62708;BME280;48769;51.624;5.886;2023-12-04T11:26:05;100412.38;;;2.54;100.00
62708;BME280;48769;51.624;5.886;2023-12-04T11:28:33;100408.19;;;2.47;100.00
62708;BME280;48769;51.624;5.886;2023-12-04T11:31:13;100406.34;;;2.52;100.00
62708;BME280;48769;51.624;5.886;2023-12-04T11:33:39;100411.28;;;2.63;100.00
62708;BME280;48769;51.624;5.886;2023-12-04T11:36:09;100401.66;;;2.65;100.00
62708;BME280;48769;51.624;5.886;2023-12-04T11:38:36;100410.41;;;2.64;100.00
62708;BME280;48769;51.624;5.886;2023-12-04T11:41:20;100414.00;;;2.58;100.00
62708;BME280;48769;51.624;5.886;2023-12-04T11:43:46;100405.09;;;2.67;100.00
62708;BME280;48769;51.624;5.886;2023-12-04T11:46:21;100408.44;;;2.72;100.00
62708;BME280;48769;51.624;5.886;2023-12-04T11:49:26;100408.34;;;2.75;100.00
62708;BME280;48769;51.624;5.886;2023-12-04T11:54:08;100395.09;;;2.83;100.00
62708;BME280;48769;51.624;5.886;2023-12-04T11:56:33;100386.41;;;2.82;100.00
62708;BME280;48769;51.624;5.886;2023-12-04T11:59:06;100383.47;;;2.94;100.00
62708;BME280;48769;51.624;5.886;2023-12-04T12:01:37;100383.66;;;2.88;100.00
62708;BME280;48769;51.624;5.886;2023-12-04T12:04:08;100385.00;;;2.70;100.00
62708;BME280;48769;51.624;5.886;2023-12-04T12:06:35;100380.41;;;2.80;100.00
62708;BME280;48769;51.624;5.886;2023-12-04T12:09:00;100372.59;;;2.80;100.00
62708;BME280;48769;51.624;5.886;2023-12-04T12:11:26;100362.22;;;2.77;100.00
62708;BME280;48769;51.624;5.886;2023-12-04T12:13:53;100355.84;;;2.87;100.00
62708;BME280;48769;51.624;5.886;2023-12-04T12:16:18;100350.66;;;2.87;100.00
62708;BME280;48769;51.624;5.886;2023-12-04T12:18:44;100347.22;;;2.85;100.00
62708;BME280;48769;51.624;5.886;2023-12-04T12:21:09;100350.72;;;2.84;100.00
62708;BME280;48769;51.624;5.886;2023-12-04T12:23:35;100337.31;;;2.67;100.00
62708;BME280;48769;51.624;5.886;2023-12-04T12:26:00;100333.78;;;2.68;100.00
62708;BME280;48769;51.624;5.886;2023-12-04T12:28:25;100334.63;;;2.70;100.00
62708;BME280;48769;51.624;5.886;2023-12-04T12:30:51;100330.50;;;2.60;100.00
62708;BME280;48769;51.624;5.886;2023-12-04T12:33:19;100325.31;;;2.60;100.00
62708;BME280;48769;51.624;5.886;2023-12-04T12:35:46;100314.88;;;2.60;100.00
62708;BME280;48769;51.624;5.886;2023-12-04T12:38:12;100308.03;;;2.55;100.00
62708;BME280;48769;51.624;5.886;2023-12-04T12:40:38;100310.53;;;2.60;100.00
62708;BME280;48769;51.624;5.886;2023-12-04T12:43:07;100303.41;;;2.67;100.00
62708;BME280;48769;51.624;5.886;2023-12-04T12:45:40;100299.81;;;2.71;100.00
62708;BME280;48769;51.624;5.886;2023-12-04T12:48:05;100291.88;;;2.74;100.00